Time;durP1;ratioP1;P1;durP2;ratioP2;P2;SDS_P1;SDS_P2;PMS_P1;PMS_P2;Temp;Humidity;BMP_temperature;BMP_pressure;BME280_temperature;BME280_humidity;BME280_pressure;Samples;Min_cycle;Max_cycle;Signal;HPM_P1;HPM_P2
2022/12/05 00:00:35;;;;;;;7.35;1.83;;;;;;;-8.46;65.31;102354.44;4984290;28;20042;-50
2022/12/05 00:03:05;;;;;;;9.00;3.28;;;;;;;-8.51;65.18;102345.63;4989432;28;20050;-48
2022/12/05 00:05:30;;;;;;;;;;;;;;;-8.46;65.64;102355.34;4988667;28;20059;-50
2022/12/05 00:07:56;;;;;;;6.38;3.42;;;;;;;-8.70;65.32;102315.47;4989624;28;19924;-48
2022/12/05 00:10:22;;;;;;;7.85;3.60;;;;;;;-8.50;64.82;102347.38;4991127;28;20047;-49
2022/12/05 00:12:48;;;;;;;8.13;3.10;;;;;;;-8.67;65.41;102309.03;4992143;28;20046;-48
2022/12/05 00:15:13;;;;;;;13.13;3.63;;;;;;;-8.36;65.17;102347.78;4991284;28;20506;-49
2022/12/05 00:17:39;;;;;;;6.95;2.45;;;;;;;-8.28;65.03;102345.88;4989958;28;20046;-48
2022/12/05 00:20:06;;;;;;;7.43;3.20;;;;;;;-8.30;65.06;102342.38;4989851;28;20608;-47
2022/12/05 00:22:35;;;;;;;6.88;3.13;;;;;;;-8.33;65.08;102339.59;4989166;28;20449;-51
2022/12/05 00:25:02;;;;;;;9.57;4.13;;;;;;;-8.36;65.58;102334.28;4973359;28;20042;-48
2022/12/05 00:27:29;;;;;;;6.45;2.92;;;;;;;-8.40;64.93;102343.25;4971972;28;20046;-47
2022/12/05 00:29:55;;;;;;;9.02;3.33;;;;;;;-8.50;64.76;102328.09;4982047;28;20050;-51
2022/12/05 00:32:21;;;;;;;7.82;3.28;;;;;;;-8.49;65.80;102336.56;4991274;28;20136;-50
2022/12/05 00:34:46;;;;;;;7.07;2.33;;;;;;;-8.52;65.84;102331.22;4990088;28;20173;-51
2022/12/05 00:37:12;;;;;;;7.85;2.67;;;;;;;-8.51;65.26;102338.94;4984858;28;20049;-49
2022/12/05 00:39:38;;;;;;;6.35;3.05;;;;;;;-8.54;65.43;102331.13;4978795;28;20038;-50
2022/12/05 00:42:04;;;;;;;3.78;1.95;;;;;;;-8.84;66.03;102284.03;4973239;28;20050;-50
2022/12/05 00:44:31;;;;;;;6.32;2.72;;;;;;;-8.63;65.07;102327.81;4978112;28;20034;-48
2022/12/05 00:46:57;;;;;;;8.07;3.10;;;;;;;-8.65;65.85;102327.69;4956599;28;20042;-48
2022/12/05 00:49:23;;;;;;;8.30;2.92;;;;;;;-9.00;66.23;102260.78;4972456;28;20046;-49
2022/12/05 00:52:09;;;;;;;6.03;1.98;;;;;;;-8.69;66.14;102340.78;4959656;28;20043;-47
2022/12/05 00:54:35;;;;;;;3.63;1.95;;;;;;;-8.75;65.96;102315.06;4979754;28;20140;-48
2022/12/05 00:57:01;;;;;;;5.85;1.98;;;;;;;-8.72;65.72;102319.47;4976225;28;20089;-45
2022/12/05 00:59:27;;;;;;;7.82;2.72;;;;;;;-8.75;66.07;102307.50;4955333;28;20196;-47
2022/12/05 01:01:53;;;;;;;9.13;3.60;;;;;;;-8.74;65.69;102314.28;5004760;28;20133;-48
2022/12/05 01:04:22;;;;;;;7.03;2.40;;;;;;;-8.75;65.49;102316.72;4974742;28;20505;-48
2022/12/05 01:06:48;;;;;;;9.70;3.47;;;;;;;-8.77;66.03;102313.16;4980184;28;20101;-49
2022/12/05 01:09:17;;;;;;;6.22;2.70;;;;;;;-8.76;66.54;102314.94;4954650;28;20074;-50
2022/12/05 01:11:43;;;;;;;3.63;1.90;;;;;;;-8.77;66.43;102298.94;4973273;28;20042;-48
2022/12/05 01:14:11;;;;;;;3.33;1.38;;;;;;;-8.76;66.27;102297.28;5000702;28;20068;-49
2022/12/05 01:16:39;;;;;;;7.80;2.90;;;;;;;-8.81;66.49;102299.44;4975087;28;20038;-50
2022/12/05 01:19:09;;;;;;;8.15;3.58;;;;;;;-8.80;66.47;102290.22;4985709;28;20133;-51
2022/12/05 01:21:35;;;;;;;7.70;3.20;;;;;;;-8.81;66.66;102288.47;4996905;28;20045;-50
2022/12/05 01:24:01;;;;;;;5.07;2.78;;;;;;;-8.82;65.59;102284.16;4974961;28;20039;-49
2022/12/05 01:26:27;;;;;;;8.30;3.58;;;;;;;-9.03;65.90;102250.47;5000900;28;20368;-51
2022/12/05 01:28:52;;;;;;;3.83;1.73;;;;;;;-8.76;66.19;102282.16;4985443;28;20149;-51
2022/12/05 01:31:26;;;;;;;8.98;2.90;;;;;;;-8.82;65.69;102276.59;4985302;28;20042;-47
2022/12/05 01:33:53;;;;;;;5.65;2.67;;;;;;;-8.85;66.15;102278.88;4988175;28;20057;-48
2022/12/05 01:36:19;;;;;;;7.68;3.78;;;;;;;-8.89;66.65;102265.09;4990206;28;20053;-48
2022/12/05 01:38:45;;;;;;;8.95;2.88;;;;;;;-8.90;66.15;102265.00;4984926;28;20039;-51
2022/12/05 01:41:15;;;;;;;8.57;3.55;;;;;;;-8.91;66.49;102271.69;4980185;28;20034;-52
2022/12/05 01:43:58;;;;;;;7.68;3.08;;;;;;;-9.11;66.18;102231.31;4973107;28;20149;-50
2022/12/05 01:46:25;;;;;;;6.47;2.20;;;;;;;-8.93;65.57;102265.63;4982234;28;20595;-49
2022/12/05 01:48:55;;;;;;;4.47;2.30;;;;;;;-8.92;66.25;102263.97;4986579;28;20050;-48
2022/12/05 01:51:22;;;;;;;8.43;2.95;;;;;;;-9.12;65.94;102232.06;4987992;28;21081;-49
2022/12/05 01:53:47;;;;;;;6.35;2.60;;;;;;;-8.93;66.59;102268.13;4984947;28;20051;-49
2022/12/05 01:56:13;;;;;;;7.72;2.95;;;;;;;-8.91;65.85;102255.66;4978924;28;20250;-47
2022/12/05 01:58:40;;;;;;;7.03;2.97;;;;;;;-8.93;65.91;102263.09;4978692;28;20074;-47
2022/12/05 02:01:06;;;;;;;8.63;3.60;;;;;;;-8.91;65.76;102265.75;4985503;28;20061;-51
2022/12/05 02:03:35;;;;;;;5.57;2.63;;;;;;;-8.91;66.16;102266.63;4985773;28;20042;-51
2022/12/05 02:06:00;;;;;;;3.45;2.40;;;;;;;-8.94;65.65;102265.47;4988370;28;20530;-52
2022/12/05 02:08:27;;;;;;;2.47;1.42;;;;;;;-8.93;65.72;102257.16;4988105;28;20038;-47
2022/12/05 02:10:55;;;;;;;7.95;3.08;;;;;;;-8.90;65.67;102257.44;4988020;28;20042;-53
2022/12/05 02:13:39;;;;;;;7.70;3.38;;;;;;;-8.86;66.08;102256.94;5007741;28;20052;-50
2022/12/05 02:16:10;;;;;;;4.97;2.38;;;;;;;-8.88;65.53;102258.44;4990719;28;20042;-49
2022/12/05 02:19:10;;;;;;;3.47;1.70;;;;;;;-8.91;65.94;102251.53;4975031;28;20038;-50
2022/12/05 02:22:17;;;;;;;4.82;2.45;;;;;;;-8.92;65.53;102244.72;4989664;28;20058;-51
2022/12/05 02:25:06;;;;;;;7.82;2.95;;;;;;;-8.91;66.42;102249.00;4999897;28;20082;-49
2022/12/05 02:27:46;;;;;;;4.97;2.22;;;;;;;-8.84;65.86;102257.94;4981670;28;20071;-49
2022/12/05 02:30:15;;;;;;;3.72;2.20;;;;;;;-8.91;65.68;102243.97;5002561;28;20133;-52
2022/12/05 02:32:47;;;;;;;11.20;2.88;;;;;;;-8.90;66.15;102239.81;4997908;28;20401;-49
2022/12/05 02:35:27;;;;;;;9.82;2.85;;;;;;;-8.91;66.15;102243.06;4987794;28;20048;-47
2022/12/05 02:38:14;;;;;;;9.50;2.88;;;;;;;-8.91;66.54;102238.91;4982187;28;20085;-54
2022/12/05 02:41:09;;;;;;;3.58;1.80;;;;;;;-8.88;65.43;102230.72;4980457;28;20050;-50
2022/12/05 02:43:37;;;;;;;9.68;3.08;;;;;;;-8.91;65.79;102238.03;4977486;28;20062;-51
2022/12/05 02:46:08;;;;;;;6.25;2.95;;;;;;;-8.92;65.24;102237.16;4989311;28;20057;-48
2022/12/05 02:48:35;;;;;;;11.18;3.17;;;;;;;-8.86;65.90;102227.59;4971299;28;20042;-50
2022/12/05 02:51:02;;;;;;;5.30;2.55;;;;;;;-8.83;65.14;102237.03;4971519;28;20054;-51
2022/12/05 02:53:29;;;;;;;7.63;2.63;;;;;;;-8.81;65.45;102227.97;4982079;28;20062;-48
2022/12/05 02:55:55;;;;;;;5.78;2.95;;;;;;;-8.82;65.28;102229.59;4985086;28;20514;-48
2022/12/05 02:58:26;;;;;;;6.60;2.42;;;;;;;-8.86;65.62;102225.06;4979860;28;20053;-50
2022/12/05 03:00:55;;;;;;;1.95;1.33;;;;;;;-8.87;65.05;102220.78;4983813;28;20050;-52
2022/12/05 03:03:21;;;;;;;8.88;2.42;;;;;;;-8.90;65.00;102214.59;4979629;28;20081;-48
2022/12/05 03:06:04;;;;;;;5.80;1.98;;;;;;;-8.86;65.53;102220.03;4989057;28;20128;-51
2022/12/05 03:08:39;;;;;;;7.85;2.58;;;;;;;-8.94;64.53;102200.84;4977823;28;20129;-50
2022/12/05 03:11:05;;;;;;;3.38;1.67;;;;;;;-8.97;65.20;102187.09;4988163;28;20054;-50
2022/12/05 03:13:52;;;;;;;4.85;1.88;;;;;;;-8.89;65.42;102209.66;4988540;28;20132;-52
2022/12/05 03:16:23;;;;;;;4.32;1.83;;;;;;;-9.09;64.78;102176.88;4985426;28;20042;-48
2022/12/05 03:19:00;;;;;;;7.38;3.05;;;;;;;-8.93;65.07;102211.81;4988383;28;20050;-49
2022/12/05 03:21:34;;;;;;;8.07;2.33;;;;;;;-8.94;64.75;102208.41;4996205;28;20094;-49
2022/12/05 03:24:08;;;;;;;4.75;2.10;;;;;;;-9.03;64.48;102207.63;4989998;28;20042;-50
2022/12/05 03:26:52;;;;;;;5.80;2.08;;;;;;;-9.04;64.45;102210.91;4981857;28;20048;-47
2022/12/05 03:29:35;;;;;;;3.40;1.30;;;;;;;-9.05;65.05;102199.06;4979183;28;20137;-51
2022/12/05 03:32:18;;;;;;;7.93;2.40;;;;;;;-9.26;65.17;102172.94;5005865;28;20054;-49
2022/12/05 03:35:17;;;;;;;9.73;2.92;;;;;;;-9.06;65.36;102199.84;4975193;28;20490;-55
2022/12/05 03:37:51;;;;;;;;;;;;;;;-9.10;64.90;102191.13;4963256;28;20415;-52
2022/12/05 03:40:45;;;;;;;3.88;1.80;;;;;;;-9.16;65.04;102203.19;4999849;28;20496;-50
2022/12/05 03:43:22;;;;;;;6.50;2.03;;;;;;;-9.19;64.82;102187.84;4967707;28;20042;-49
2022/12/05 03:46:04;;;;;;;3.67;1.92;;;;;;;-9.20;64.71;102190.22;4990034;28;20049;-54
2022/12/05 03:48:37;;;;;;;3.15;1.42;;;;;;;-9.17;64.68;102181.28;4988800;28;20042;-49
2022/12/05 03:51:05;;;;;;;4.60;1.80;;;;;;;-9.20;65.25;102181.03;4973704;28;20073;-47
2022/12/05 03:53:35;;;;;;;18.73;3.08;;;;;;;-9.22;65.57;102181.66;4991455;28;21254;-51
2022/12/05 03:56:06;;;;;;;8.80;2.55;;;;;;;-9.23;65.30;102180.78;5000152;28;20043;-50
2022/12/05 03:58:37;;;;;;;5.43;1.75;;;;;;;-9.22;65.29;102187.59;4962068;28;20050;-49
2022/12/05 04:01:05;;;;;;;3.85;1.48;;;;;;;-9.21;65.47;102170.84;4985358;28;20043;-49
2022/12/05 04:03:44;;;;;;;3.33;2.00;;;;;;;-9.24;65.11;102175.59;4987447;28;20042;-50
2022/12/05 04:06:28;;;;;;;5.68;2.33;;;;;;;-9.45;65.35;102127.72;4993839;28;20580;-49
2022/12/05 04:08:59;;;;;;;5.55;2.75;;;;;;;-9.29;65.41;102175.22;4990058;28;20038;-50
2022/12/05 04:11:28;;;;;;;7.10;2.42;;;;;;;-9.48;65.13;102141.69;4991735;28;20100;-49
2022/12/05 04:14:00;;;;;;;6.00;2.35;;;;;;;-9.31;65.73;102164.13;4990041;28;20049;-51
2022/12/05 04:22:25;;;;;;;2.33;1.17;;;;;;;-9.33;65.29;102155.56;4970716;28;20060;-50
2022/12/05 04:27:41;;;;;;;3.70;1.92;;;;;;;-9.36;65.58;102160.34;4977843;28;20069;-47
2022/12/05 04:30:11;;;;;;;6.47;2.33;;;;;;;-9.36;65.60;102151.88;4977084;28;20484;-51
2022/12/05 04:32:44;;;;;;;13.23;3.40;;;;;;;-9.37;65.04;102157.72;4972779;28;20038;-49
2022/12/05 04:35:17;;;;;;;3.50;1.60;;;;;;;-9.35;65.07;102156.19;4991304;28;20061;-47
2022/12/05 04:37:46;;;;;;;7.00;2.70;;;;;;;-9.38;65.29;102151.78;4990192;28;20084;-48
2022/12/05 04:40:19;;;;;;;2.97;1.40;;;;;;;-9.38;65.78;102144.22;4978016;28;20038;-50
2022/12/05 04:42:46;;;;;;;7.13;2.67;;;;;;;-9.47;65.33;102139.28;4989644;28;20430;-47
2022/12/05 04:45:15;;;;;;;8.48;3.20;;;;;;;-9.39;65.02;102147.50;4974292;28;20053;-51
2022/12/05 04:47:45;;;;;;;4.15;1.80;;;;;;;-9.37;65.37;102140.06;4973471;28;20129;-51
2022/12/05 04:50:11;;;;;;;;;;;;;;;-9.38;65.08;102133.28;4957183;28;20042;-53
2022/12/05 04:52:37;;;;;;;2.92;1.83;;;;;;;-9.44;65.66;102138.66;4989789;28;19972;-48
2022/12/05 04:55:03;;;;;;;6.40;2.53;;;;;;;-9.47;65.74;102131.72;4983510;28;20120;-52
2022/12/05 04:57:35;;;;;;;2.05;1.55;;;;;;;-9.49;65.77;102140.81;4989122;28;20133;-50
2022/12/05 05:00:01;;;;;;;5.38;2.13;;;;;;;-9.51;65.92;102122.16;4987885;28;20034;-48
2022/12/05 05:02:34;;;;;;;4.60;1.52;;;;;;;-9.49;65.45;102129.84;4993781;28;20129;-51
2022/12/05 05:05:01;;;;;;;4.93;1.77;;;;;;;-9.88;66.19;102057.75;4984440;28;20038;-49
2022/12/05 05:07:28;;;;;;;6.90;2.80;;;;;;;-9.50;65.87;102126.44;4973222;28;20486;-48
2022/12/05 05:09:55;;;;;;;3.78;1.85;;;;;;;-9.88;66.38;102056.88;4976949;28;20409;-50
2022/12/05 05:12:21;;;;;;;5.35;2.30;;;;;;;-9.54;66.40;102121.91;4970575;28;20041;-53
2022/12/05 05:14:46;;;;;;;6.93;2.60;;;;;;;-9.51;65.63;102119.63;4983104;28;20046;-48
2022/12/05 05:17:12;;;;;;;7.50;3.25;;;;;;;-9.49;65.67;102132.38;4987448;28;20453;-47
2022/12/05 05:19:38;;;;;;;8.32;2.20;;;;;;;-9.46;66.39;102135.13;4980917;28;20034;-45
2022/12/05 05:22:04;;;;;;;5.03;2.20;;;;;;;-9.47;66.02;102138.38;4979233;28;20422;-50
2022/12/05 05:24:30;;;;;;;5.65;3.03;;;;;;;-9.79;66.23;102070.25;4984771;28;20034;-47
2022/12/05 05:26:56;;;;;;;4.30;2.08;;;;;;;-9.45;66.39;102136.91;4969284;28;20038;-47
2022/12/05 05:29:22;;;;;;;7.75;2.78;;;;;;;-9.64;65.67;102100.88;4987147;28;20038;-46
2022/12/05 05:31:47;;;;;;;5.07;2.22;;;;;;;-9.49;65.90;102124.81;4984398;28;20038;-47
2022/12/05 05:34:15;;;;;;;4.03;1.85;;;;;;;-9.71;65.51;102091.91;4989558;28;20054;-47
2022/12/05 05:36:41;;;;;;;6.68;1.98;;;;;;;-9.46;65.10;102130.09;4991356;28;20072;-48
2022/12/05 05:39:11;;;;;;;5.05;2.03;;;;;;;-9.50;65.54;102123.94;4954354;28;20050;-50
2022/12/05 05:41:37;;;;;;;5.63;2.15;;;;;;;-9.42;65.99;102122.06;4986089;28;20038;-45
2022/12/05 05:44:04;;;;;;;4.10;1.08;;;;;;;-9.40;65.58;102123.06;4982756;28;20150;-53
2022/12/05 05:46:31;;;;;;;12.57;2.38;;;;;;;-9.39;64.91;102122.31;4984276;28;20050;-51
2022/12/05 05:48:57;;;;;;;4.90;2.33;;;;;;;-9.34;65.30;102116.03;4989486;28;20042;-55
2022/12/05 05:51:28;;;;;;;3.97;1.98;;;;;;;-9.30;64.91;102112.13;4986173;28;20058;-50
2022/12/05 05:53:55;;;;;;;3.83;1.90;;;;;;;-9.24;64.87;102110.09;4976693;28;20438;-51
2022/12/05 05:56:21;;;;;;;6.03;1.92;;;;;;;-9.23;64.78;102109.38;4992725;28;20141;-51
2022/12/05 05:58:47;;;;;;;6.38;2.88;;;;;;;-9.16;65.25;102116.69;4971640;28;20478;-51
2022/12/05 06:01:16;;;;;;;6.05;2.40;;;;;;;-9.11;64.58;102105.34;4989481;28;20050;-51
2022/12/05 06:03:42;;;;;;;3.75;1.45;;;;;;;-9.25;64.57;102073.97;4989263;28;20430;-52
2022/12/05 06:06:11;;;;;;;5.57;2.72;;;;;;;-9.02;64.02;102103.56;5001475;28;20152;-54
2022/12/05 06:08:39;;;;;;;6.43;2.67;;;;;;;-8.96;64.22;102108.25;4987397;28;20080;-52
2022/12/05 06:11:06;;;;;;;6.35;2.35;;;;;;;-9.09;64.36;102078.63;4979744;28;20049;-48
2022/12/05 06:13:31;;;;;;;4.28;2.20;;;;;;;-8.91;63.78;102119.56;4978926;28;20050;-51
2022/12/05 06:15:57;;;;;;;4.00;2.00;;;;;;;-8.91;63.15;102104.47;4982065;28;20561;-50
2022/12/05 06:18:23;;;;;;;7.47;2.95;;;;;;;-8.88;63.26;102109.72;4985668;28;20061;-47
2022/12/05 06:20:53;;;;;;;4.43;1.98;;;;;;;-8.82;63.06;102112.75;4984649;28;20144;-51
2022/12/05 06:23:19;;;;;;;6.95;2.30;;;;;;;-8.85;63.14;102105.84;4988760;28;20042;-49
2022/12/05 06:25:49;;;;;;;6.05;2.45;;;;;;;-8.78;63.69;102107.19;4977049;28;20049;-50
2022/12/05 06:28:16;;;;;;;4.13;1.70;;;;;;;-8.82;63.27;102090.97;4993143;28;20507;-52
2022/12/05 06:30:42;;;;;;;4.88;2.17;;;;;;;-9.16;63.01;102024.31;4984836;28;20054;-49
2022/12/05 06:33:08;;;;;;;6.47;2.80;;;;;;;-8.72;62.93;102106.06;4987339;28;20582;-54
2022/12/05 06:35:34;;;;;;;9.48;2.80;;;;;;;-8.79;63.04;102072.69;4957135;28;20053;-51
2022/12/05 06:38:00;;;;;;;4.40;1.88;;;;;;;-8.73;62.54;102058.91;4984399;28;20073;-49
2022/12/05 06:40:26;;;;;;;3.25;1.25;;;;;;;-8.44;62.79;102103.25;5003299;28;20042;-53
2022/12/05 06:42:52;;;;;;;5.65;2.15;;;;;;;-8.29;62.67;102105.31;4989027;28;20042;-51
2022/12/05 06:45:17;;;;;;;5.32;2.70;;;;;;;-8.24;61.67;102099.00;4991907;28;20046;-49
2022/12/05 06:47:43;;;;;;;5.13;2.00;;;;;;;-8.04;61.77;102097.16;4992670;28;20050;-47
2022/12/05 06:50:09;;;;;;;7.80;3.33;;;;;;;-7.57;61.23;102091.59;4991435;28;20088;-50
2022/12/05 06:52:35;;;;;;;5.93;2.72;;;;;;;-6.92;59.91;102091.50;5007393;28;20054;-52
2022/12/05 06:55:01;;;;;;;6.07;2.40;;;;;;;-6.43;58.48;102080.75;4991096;28;20054;-54
2022/12/05 06:57:29;;;;;;;2.67;1.42;;;;;;;-6.08;57.61;102087.47;4992492;28;20050;-51
2022/12/05 07:01:37;;;;;;;9.18;2.78;;;;;;;-5.85;56.73;102092.44;4990593;28;20049;-50
2022/12/05 07:02:41;;;;;;;5.00;2.47;;;;;;;-5.63;56.03;102103.31;5004419;28;20111;-48
2022/12/05 07:05:10;;;;;;;5.68;1.90;;;;;;;-6.16;55.90;102054.00;4988477;28;20034;-48
2022/12/05 07:07:36;;;;;;;3.88;1.70;;;;;;;-6.38;55.63;102087.84;4996176;28;20798;-47
2022/12/05 07:10:04;;;;;;;7.32;3.63;;;;;;;-6.65;56.03;102071.53;4991117;28;20093;-50
2022/12/05 07:12:31;;;;;;;4.93;2.13;;;;;;;-6.60;55.90;102087.94;4992373;28;20153;-53
2022/12/05 07:14:57;;;;;;;6.15;3.05;;;;;;;-6.90;56.11;102052.03;4974690;28;20085;-51
2022/12/05 07:17:23;;;;;;;7.18;1.95;;;;;;;-6.64;56.18;102086.81;4991246;28;20053;-53
2022/12/05 07:19:50;;;;;;;10.05;3.15;;;;;;;-6.57;56.21;102091.56;4974609;28;20124;-56
2022/12/05 07:22:17;;;;;;;8.07;3.45;;;;;;;-6.54;55.77;102088.38;4973587;28;20065;-49
2022/12/05 07:24:44;;;;;;;10.13;3.42;;;;;;;-6.69;55.69;102080.53;4992489;28;20145;-52
2022/12/05 07:27:10;;;;;;;2.33;1.33;;;;;;;-6.77;55.75;102079.09;4991448;28;20046;-49
2022/12/05 07:29:36;;;;;;;5.63;2.30;;;;;;;-7.03;55.58;102021.56;4990797;28;20133;-51
2022/12/05 07:32:02;;;;;;;4.00;2.38;;;;;;;-6.74;55.80;102080.97;4990800;28;20042;-51
2022/12/05 07:34:28;;;;;;;5.90;2.63;;;;;;;-6.77;55.41;102075.69;5005667;28;20042;-53
2022/12/05 07:36:54;;;;;;;8.00;3.25;;;;;;;-6.57;55.43;102072.97;4986835;28;20042;-59
2022/12/05 07:39:20;;;;;;;9.40;3.65;;;;;;;-6.35;54.85;102029.81;4991248;28;20041;-53
2022/12/05 07:41:46;;;;;;;11.65;3.85;;;;;;;-6.06;54.29;102031.09;4982328;28;20042;-53
2022/12/05 07:44:15;;;;;;;11.88;3.67;;;;;;;-5.66;53.65;102059.16;5007325;28;20418;-48
2022/12/05 07:46:41;;;;;;;5.95;3.28;;;;;;;-5.47;53.19;102063.81;5007217;28;20046;-50
2022/12/05 07:49:07;;;;;;;9.40;3.80;;;;;;;-5.17;52.71;102022.75;4991765;28;20518;-53
2022/12/05 07:51:34;;;;;;;9.75;3.03;;;;;;;-4.96;52.10;102062.19;4990713;28;20545;-51
2022/12/05 07:54:00;;;;;;;12.07;4.60;;;;;;;-4.81;51.60;102055.59;4970226;28;20047;-56
2022/12/05 07:56:26;;;;;;;12.43;3.22;;;;;;;-4.61;51.08;102053.47;4991018;28;20054;-55
2022/12/05 07:58:52;;;;;;;7.55;3.40;;;;;;;-4.95;51.14;101985.31;4991244;28;20041;-50
2022/12/05 08:01:21;;;;;;;3.47;2.25;;;;;;;-4.39;50.72;102043.88;4973482;28;20490;-52
2022/12/05 08:03:47;;;;;;;7.68;3.13;;;;;;;-3.24;50.07;102040.81;4990379;28;20048;-54
2022/12/05 08:06:18;;;;;;;13.10;3.35;;;;;;;-2.29;48.09;102037.78;4991811;28;20054;-51
2022/12/05 08:08:44;;;;;;;8.48;3.70;;;;;;;-1.88;46.84;102027.28;4991376;28;20038;-55
2022/12/05 08:11:13;;;;;;;9.27;3.60;;;;;;;-1.58;46.06;102032.25;4989694;28;20057;-57
2022/12/05 08:13:40;;;;;;;6.30;2.65;;;;;;;-1.83;45.62;102028.41;4991123;28;20042;-54
2022/12/05 08:16:08;;;;;;;10.43;3.33;;;;;;;-2.19;45.64;102022.22;4990326;28;20050;-51
2022/12/05 08:18:34;;;;;;;7.40;3.15;;;;;;;-2.25;44.71;101991.31;4990201;28;20038;-52
2022/12/05 08:21:02;;;;;;;6.45;3.10;;;;;;;-2.17;44.63;101986.63;4991544;28;20069;-52
2022/12/05 08:23:30;;;;;;;11.18;4.63;;;;;;;-1.84;44.43;102020.69;4991170;28;20777;-52
2022/12/05 08:26:03;;;;;;;6.70;3.25;;;;;;;-1.90;43.96;102025.47;4991196;28;20049;-53
2022/12/05 08:28:29;;;;;;;5.60;2.35;;;;;;;-2.54;44.21;102027.06;4989796;28;20050;-52
2022/12/05 08:30:55;;;;;;;8.45;3.60;;;;;;;-2.71;44.26;102012.50;4991128;28;20046;-55
2022/12/05 08:33:21;;;;;;;6.38;2.42;;;;;;;-2.64;44.82;102010.38;4990859;28;20096;-52
2022/12/05 08:35:47;;;;;;;6.53;2.50;;;;;;;-2.36;43.88;101978.81;5006235;28;20042;-52
2022/12/05 08:38:13;;;;;;;6.97;3.65;;;;;;;-1.91;42.99;101977.81;4991134;28;20064;-53
2022/12/05 08:40:39;;;;;;;7.00;3.67;;;;;;;-1.89;42.80;102000.06;4990725;28;20065;-54
2022/12/05 08:43:04;;;;;;;9.05;3.92;;;;;;;-1.36;42.58;102007.91;4989482;28;20052;-56
2022/12/05 08:45:30;;;;;;;12.82;4.20;;;;;;;-0.62;41.92;101995.41;4991455;28;20042;-56
2022/12/05 08:47:56;;;;;;;8.07;2.15;;;;;;;-0.02;41.01;102001.63;4989942;28;20148;-56
2022/12/05 08:50:22;;;;;;;5.78;2.72;;;;;;;0.04;40.45;101999.38;4989959;28;20535;-53
2022/12/05 08:52:48;;;;;;;10.82;3.78;;;;;;;0.36;39.87;101955.63;4989369;28;20042;-54
2022/12/05 08:55:14;;;;;;;6.97;3.70;;;;;;;1.14;38.92;101976.78;4991072;28;20042;-54
2022/12/05 08:57:40;;;;;;;6.65;3.47;;;;;;;0.74;38.61;101916.25;4989625;28;20065;-57
2022/12/05 09:00:06;;;;;;;7.60;3.22;;;;;;;0.92;38.22;101969.91;4989887;28;20065;-58
2022/12/05 09:02:32;;;;;;;9.18;4.53;;;;;;;-0.03;38.98;101972.63;4991015;28;20046;-52
2022/12/05 09:04:58;;;;;;;5.82;3.55;;;;;;;-0.67;39.17;101950.03;4988738;28;20132;-52
2022/12/05 09:07:24;;;;;;;17.50;4.25;;;;;;;-1.13;40.01;101972.47;4989677;28;20073;-52
2022/12/05 09:09:51;;;;;;;6.97;3.50;;;;;;;-1.43;40.59;101975.25;5005661;28;20046;-54
2022/12/05 09:12:17;;;;;;;7.03;3.30;;;;;;;-1.81;40.58;101960.53;4989427;28;20145;-56
2022/12/05 09:14:42;;;;;;;9.82;3.83;;;;;;;-2.03;41.33;101957.66;5005559;28;20050;-55
2022/12/05 09:17:08;;;;;;;8.68;3.95;;;;;;;-1.68;40.64;101963.72;4990270;28;20057;-50
2022/12/05 09:19:34;;;;;;;8.85;4.00;;;;;;;-1.75;40.72;101958.31;4989007;28;20042;-54
2022/12/05 09:22:00;;;;;;;12.68;3.83;;;;;;;-2.18;41.41;101960.28;4990370;28;20046;-51
2022/12/05 09:24:26;;;;;;;9.05;3.90;;;;;;;-1.87;41.30;101951.69;4990302;28;20133;-54
2022/12/05 09:26:52;;;;;;;11.93;4.10;;;;;;;-1.64;40.76;101951.22;4988625;28;20109;-59
2022/12/05 09:29:18;;;;;;;8.35;3.33;;;;;;;-1.57;40.98;101955.81;5004903;28;20556;-51
2022/12/05 09:31:46;;;;;;;7.57;3.33;;;;;;;-1.69;40.36;101942.44;4988275;28;20053;-51
2022/12/05 09:34:13;;;;;;;7.82;3.35;;;;;;;-1.53;40.54;101942.44;4988444;28;20129;-52
2022/12/05 09:36:39;;;;;;;7.60;3.67;;;;;;;-2.38;40.67;101874.28;4988588;28;20517;-57
2022/12/05 09:39:05;;;;;;;16.50;3.92;;;;;;;-1.97;41.11;101939.25;4988352;28;20469;-54
2022/12/05 09:42:07;;;;;;;6.43;3.15;;;;;;;-1.82;41.08;101940.03;4990369;28;20068;-51
2022/12/05 09:44:48;;;;;;;7.78;3.65;;;;;;;-2.46;41.33;101926.47;5005412;28;20572;-53
2022/12/05 09:47:17;;;;;;;5.88;2.65;;;;;;;-3.06;42.33;101934.16;5004983;28;20200;-51
2022/12/05 09:50:08;;;;;;;11.38;4.07;;;;;;;-3.55;43.37;101933.00;4989039;28;20046;-55
2022/12/05 09:52:37;;;;;;;10.27;3.70;;;;;;;-3.73;43.83;101925.22;4978400;28;20112;-51
2022/12/05 09:55:15;;;;;;;7.13;2.97;;;;;;;-4.16;43.60;101890.41;4988430;28;20074;-56
2022/12/05 09:57:58;;;;;;;14.50;4.68;;;;;;;-4.26;44.07;101929.63;4988686;28;20049;-51
2022/12/05 10:00:25;;;;;;;3.80;1.88;;;;;;;-4.16;44.15;101923.44;4988611;28;20064;-55
2022/12/05 10:03:18;;;;;;;8.55;3.83;;;;;;;-4.20;44.54;101917.31;5004852;28;20081;-53
2022/12/05 10:06:09;;;;;;;10.30;2.78;;;;;;;-4.20;44.36;101914.75;4989225;28;20104;-52
2022/12/05 10:09:15;;;;;;;6.38;3.05;;;;;;;-4.38;45.01;101914.50;4988320;28;20041;-54
2022/12/05 10:11:52;;;;;;;6.28;3.55;;;;;;;-4.43;45.70;101903.19;4989487;28;20042;-51
2022/12/05 10:14:30;;;;;;;7.97;2.83;;;;;;;-4.61;45.24;101907.16;4989603;28;20050;-53
2022/12/05 10:17:00;;;;;;;18.73;4.05;;;;;;;-4.74;46.23;101902.09;4987470;28;20485;-55
2022/12/05 10:19:43;;;;;;;8.95;4.07;;;;;;;-4.76;45.92;101880.81;4972245;28;20050;-50
2022/12/05 10:22:23;;;;;;;8.27;3.45;;;;;;;-4.70;46.23;101892.22;4972101;28;20555;-52
2022/12/05 10:24:52;;;;;;;9.80;2.40;;;;;;;-4.82;46.43;101890.59;4988994;28;20127;-56
2022/12/05 10:27:37;;;;;;;;;;;;;;;-4.92;46.77;101881.50;4971847;28;20060;-52
2022/12/05 10:30:24;;;;;;;6.18;3.00;;;;;;;-5.02;46.64;101889.31;4971750;28;19918;-54
2022/12/05 10:32:53;;;;;;;8.18;2.92;;;;;;;-5.08;46.78;101888.09;4987732;28;20046;-51
2022/12/05 10:35:21;;;;;;;6.70;2.88;;;;;;;-5.12;47.20;101887.00;4987619;28;20049;-52
2022/12/05 10:37:50;;;;;;;8.13;3.20;;;;;;;-5.11;47.58;101891.28;4987465;28;20129;-51
2022/12/05 10:40:16;;;;;;;5.50;3.22;;;;;;;-5.01;47.38;101887.66;4973939;28;20085;-51
2022/12/05 10:42:42;;;;;;;10.10;2.70;;;;;;;-4.94;47.58;101894.91;4968348;28;20093;-55
2022/12/05 10:45:16;;;;;;;8.15;3.50;;;;;;;-5.06;47.06;101859.47;4952669;28;20148;-53
2022/12/05 10:47:42;;;;;;;6.68;2.90;;;;;;;-4.87;47.04;101882.72;4968634;28;20133;-51
2022/12/05 10:50:26;;;;;;;6.65;1.95;;;;;;;-4.80;47.06;101889.91;4971371;28;20122;-57
2022/12/05 10:52:53;;;;;;;5.07;2.92;;;;;;;-5.03;47.17;101820.78;4969493;28;20038;-51
2022/12/05 10:55:19;;;;;;;7.82;3.20;;;;;;;-4.44;46.75;101898.91;4952512;28;20035;-52
2022/12/05 10:57:51;;;;;;;7.38;3.28;;;;;;;-4.36;46.90;101890.09;4984797;28;20042;-54
2022/12/05 11:00:21;;;;;;;8.13;3.67;;;;;;;-4.11;46.88;101892.44;4986154;28;20035;-54
2022/12/05 11:02:47;;;;;;;6.22;2.50;;;;;;;-4.19;45.92;101854.69;4988076;28;20128;-54
2022/12/05 11:05:14;;;;;;;9.63;3.53;;;;;;;-4.13;46.74;101877.88;4988034;28;20042;-53
2022/12/05 11:07:43;;;;;;;7.10;3.25;;;;;;;-3.98;46.15;101884.75;4988089;28;20488;-53
2022/12/05 11:10:20;;;;;;;8.48;3.20;;;;;;;-3.70;46.17;101882.16;4971684;28;20637;-53
2022/12/05 11:12:46;;;;;;;7.72;3.72;;;;;;;-3.34;45.54;101882.50;4980886;28;20096;-51
2022/12/05 11:15:15;;;;;;;9.38;3.58;;;;;;;-3.23;44.83;101882.34;4987894;28;20038;-51
2022/12/05 11:17:42;;;;;;;7.50;3.35;;;;;;;-3.23;44.78;101873.81;4971824;28;20042;-52
2022/12/05 11:20:16;;;;;;;7.00;3.47;;;;;;;-3.51;45.25;101876.50;4986711;28;20506;-52
2022/12/05 11:22:43;;;;;;;6.75;3.42;;;;;;;-3.52;45.54;101872.19;4969802;28;20043;-53
2022/12/05 11:25:24;;;;;;;2.85;1.80;;;;;;;-3.79;45.78;101873.13;4968349;28;20050;-53
2022/12/05 11:27:51;;;;;;;5.03;2.13;;;;;;;-4.25;46.55;101867.03;4970977;28;20434;-56
2022/12/05 11:30:18;;;;;;;5.60;2.95;;;;;;;-4.31;46.95;101865.88;4972873;28;20047;-53
2022/12/05 11:32:44;;;;;;;10.90;3.70;;;;;;;-4.36;46.66;101854.56;4973123;28;20503;-51
2022/12/05 11:35:26;;;;;;;3.53;1.65;;;;;;;-4.57;47.01;101858.34;4974971;28;20042;-51
2022/12/05 11:37:56;;;;;;;8.23;2.83;;;;;;;-5.00;47.36;101821.84;4974800;28;20042;-53
2022/12/05 11:40:48;;;;;;;7.07;3.20;;;;;;;-4.89;47.14;101823.38;4987818;28;20344;-52
2022/12/05 11:43:20;;;;;;;6.50;3.10;;;;;;;-4.67;47.13;101850.94;4979888;28;20046;-52
2022/12/05 11:45:57;;;;;;;7.88;3.15;;;;;;;-4.66;47.58;101851.81;4972474;28;20404;-51